Time;durP1;ratioP1;P1;durP2;ratioP2;P2;SDS_P1;SDS_P2;PMS_P1;PMS_P2;Temp;Humidity;BMP_temperature;BMP_pressure;BME280_temperature;BME280_humidity;BME280_pressure;Samples;Min_cycle;Max_cycle;Signal;HPM_P1;HPM_P2
2023/04/25 00:01:17;;;;;;;4.20;2.97;;;8.90;99.90;;;;;;4971677;28;20515;-72
2023/04/25 00:03:42;;;;;;;2.40;2.20;;;8.90;99.90;;;;;;4971470;28;20515;-72
2023/04/25 00:06:08;;;;;;;2.63;2.43;;;9.00;99.90;;;;;;4968726;28;20646;-72
2023/04/25 00:08:34;;;;;;;3.70;3.40;;;8.90;99.90;;;;;;4966545;28;20272;-71
2023/04/25 00:11:00;;;;;;;3.20;2.83;;;8.90;99.90;;;;;;4967684;28;20650;-72
2023/04/25 00:13:26;;;;;;;4.63;2.83;;;8.90;99.90;;;;;;4972992;28;20189;-72
2023/04/25 00:15:56;;;;;;;3.17;2.50;;;8.90;99.90;;;;;;4974233;28;20956;-72
2023/04/25 00:18:22;;;;;;;4.00;2.80;;;8.80;99.90;;;;;;4970610;28;20466;-72
2023/04/25 00:20:48;;;;;;;2.70;2.50;;;8.80;99.90;;;;;;4972721;28;20546;-72
2023/04/25 00:23:19;;;;;;;2.90;2.70;;;8.80;99.90;;;;;;4972249;28;20856;-72
2023/04/25 00:25:46;;;;;;;3.10;2.90;;;8.80;99.90;;;;;;4972548;28;20187;-72
2023/04/25 00:28:12;;;;;;;2.60;2.40;;;8.90;99.90;;;;;;4973792;28;20973;-73
2023/04/25 00:30:38;;;;;;;2.53;2.33;;;8.80;99.90;;;;;;4971422;28;20463;-72
2023/04/25 00:33:04;;;;;;;2.73;2.53;;;8.80;99.90;;;;;;4970986;28;20976;-72
2023/04/25 00:35:29;;;;;;;2.90;2.60;;;8.80;99.90;;;;;;4972134;28;20439;-72
2023/04/25 00:37:55;;;;;;;3.00;2.77;;;8.90;99.90;;;;;;4971237;28;20219;-72
2023/04/25 00:40:20;;;;;;;2.70;2.50;;;8.90;99.90;;;;;;4972476;28;20196;-72
2023/04/25 00:42:47;;;;;;;2.40;2.20;;;8.80;99.90;;;;;;4972548;28;20176;-71
2023/04/25 00:45:17;;;;;;;3.20;2.90;;;8.80;99.90;;;;;;4968772;28;20263;-72
2023/04/25 00:47:42;;;;;;;2.50;2.30;;;8.70;99.90;;;;;;4971619;28;20439;-71
2023/04/25 00:50:09;;;;;;;2.67;2.43;;;8.70;99.90;;;;;;4967325;28;20467;-73
2023/04/25 00:52:36;;;;;;;2.80;2.60;;;8.70;99.90;;;;;;4965119;28;20826;-72
2023/04/25 00:55:01;;;;;;;4.60;2.70;;;8.70;99.90;;;;;;4970140;28;20462;-72
2023/04/25 00:57:28;;;;;;;2.23;2.03;;;8.70;99.90;;;;;;4972200;28;20463;-72
2023/04/25 00:59:55;;;;;;;2.57;2.37;;;8.70;99.90;;;;;;4970869;28;20220;-71
2023/04/25 01:02:21;;;;;;;2.93;2.73;;;8.70;99.90;;;;;;4968961;28;20801;-71
2023/04/25 01:04:47;;;;;;;2.83;2.63;;;8.70;99.90;;;;;;4970822;28;20431;-71
2023/04/25 01:07:14;;;;;;;3.03;2.73;;;8.70;99.90;;;;;;4967414;28;20180;-71
2023/04/25 01:09:41;;;;;;;3.27;2.97;;;8.70;99.90;;;;;;4969292;28;20475;-71
2023/04/25 01:12:06;;;;;;;3.83;3.00;;;8.80;99.90;;;;;;4961885;28;22611;-70
2023/04/25 01:14:32;;;;;;;6.90;2.80;;;8.80;99.90;;;;;;4962122;28;20447;-72
2023/04/25 01:16:58;;;;;;;3.37;3.07;;;8.80;99.90;;;;;;4966755;28;20681;-71
2023/04/25 01:19:24;;;;;;;4.37;3.13;;;8.80;99.90;;;;;;4964644;28;20338;-69
2023/04/25 01:21:50;;;;;;;3.23;2.93;;;8.70;99.90;;;;;;4965346;28;20522;-71
2023/04/25 01:24:16;;;;;;;3.60;2.77;;;8.60;99.90;;;;;;4965443;28;20663;-72
2023/04/25 01:26:49;;;;;;;3.50;3.00;;;8.60;99.90;;;;;;4979360;28;20479;-71
2023/04/25 01:29:18;;;;;;;4.67;3.57;;;8.60;99.90;;;;;;4966077;28;20204;-71
2023/04/25 01:31:44;;;;;;;3.40;2.93;;;8.60;99.90;;;;;;4964716;28;20473;-71
2023/04/25 01:34:10;;;;;;;4.40;3.13;;;8.60;99.90;;;;;;4960174;28;20443;-71
2023/04/25 01:36:36;;;;;;;3.07;2.83;;;8.60;99.90;;;;;;4965075;28;20440;-71
2023/04/25 01:39:02;;;;;;;3.07;2.87;;;8.60;99.90;;;;;;4964057;28;20471;-73
2023/04/25 01:41:27;;;;;;;4.10;3.70;;;8.60;99.90;;;;;;4963424;28;20195;-71
2023/04/25 01:43:53;;;;;;;4.43;3.60;;;8.60;99.90;;;;;;4964378;28;20444;-71
2023/04/25 01:46:19;;;;;;;3.30;2.33;;;8.60;99.90;;;;;;4964710;28;20181;-71
2023/04/25 01:48:45;;;;;;;3.33;3.07;;;8.60;99.90;;;;;;4963733;28;20208;-70
2023/04/25 01:51:11;;;;;;;3.80;2.50;;;8.60;99.90;;;;;;4966901;28;20242;-71
2023/04/25 01:53:37;;;;;;;3.30;2.97;;;8.60;99.90;;;;;;4972414;28;20435;-71
2023/04/25 01:56:03;;;;;;;6.27;3.23;;;8.50;99.90;;;;;;4960695;28;20969;-71
2023/04/25 01:58:29;;;;;;;4.93;3.50;;;8.50;99.90;;;;;;4955613;28;20464;-71
2023/04/25 02:00:54;;;;;;;3.43;3.13;;;8.50;99.90;;;;;;4963492;28;20204;-70
2023/04/25 02:03:20;;;;;;;3.37;3.07;;;8.40;99.90;;;;;;4963493;28;20673;-71
2023/04/25 02:05:45;;;;;;;3.30;2.87;;;8.30;99.90;;;;;;4973331;28;20179;-71
2023/04/25 02:08:11;;;;;;;3.63;3.33;;;8.40;99.90;;;;;;4962741;28;20189;-70
2023/04/25 02:10:37;;;;;;;3.83;3.50;;;8.30;99.90;;;;;;4954963;28;20291;-70
2023/04/25 02:13:05;;;;;;;3.37;3.07;;;8.30;99.90;;;;;;4970501;28;20209;-71
2023/04/25 02:15:30;;;;;;;3.40;3.13;;;8.30;99.90;;;;;;4970631;28;20705;-71
2023/04/25 02:17:56;;;;;;;2.80;2.50;;;8.30;99.90;;;;;;4976836;28;20538;-71
2023/04/25 02:20:22;;;;;;;4.10;2.80;;;8.30;99.90;;;;;;4961356;28;20193;-71
2023/04/25 02:22:47;;;;;;;5.23;2.97;;;8.30;99.90;;;;;;4966114;28;20183;-71
2023/04/25 02:25:13;;;;;;;2.60;2.40;;;8.30;99.90;;;;;;4964335;28;20451;-71
2023/04/25 02:27:39;;;;;;;5.53;3.10;;;8.30;99.90;;;;;;4960566;28;20261;-71
2023/04/25 02:30:06;;;;;;;2.97;2.67;;;8.30;99.90;;;;;;4969374;28;20208;-72
2023/04/25 02:32:32;;;;;;;3.10;2.90;;;8.30;99.90;;;;;;4964061;28;20176;-70
2023/04/25 02:35:03;;;;;;;2.40;2.17;;;8.20;99.90;;;;;;4968466;28;20860;-71
2023/04/25 02:37:32;;;;;;;2.90;2.70;;;8.20;99.90;;;;;;4969026;28;20203;-71
2023/04/25 02:39:58;;;;;;;5.07;2.87;;;8.30;99.90;;;;;;4971372;28;20475;-70
2023/04/25 02:42:23;;;;;;;3.30;2.73;;;8.30;99.90;;;;;;4971800;28;20805;-70
2023/04/25 02:44:49;;;;;;;2.20;2.00;;;8.30;99.90;;;;;;4968375;28;20181;-70
2023/04/25 02:47:14;;;;;;;3.03;2.73;;;8.30;99.90;;;;;;4970731;28;20184;-71
2023/04/25 02:49:40;;;;;;;2.73;2.53;;;8.30;99.90;;;;;;4966223;28;20204;-72
2023/04/25 02:52:06;;;;;;;3.20;2.80;;;8.30;99.90;;;;;;4964527;28;20184;-72
2023/04/25 02:54:31;;;;;;;3.23;2.80;;;8.30;99.90;;;;;;4962303;28;20229;-70
2023/04/25 02:56:57;;;;;;;2.90;2.60;;;8.20;99.90;;;;;;4966703;28;20302;-70
2023/04/25 02:59:22;;;;;;;6.77;2.60;;;8.20;99.90;;;;;;4969993;28;20272;-72
2023/04/25 03:01:48;;;;;;;4.50;2.77;;;8.10;99.90;;;;;;4965735;28;20179;-70
2023/04/25 03:04:14;;;;;;;4.30;2.90;;;8.00;99.90;;;;;;4966257;28;20211;-71
2023/04/25 03:06:39;;;;;;;3.57;2.70;;;8.00;99.90;;;;;;4968397;28;20180;-71
2023/04/25 03:09:05;;;;;;;4.23;3.33;;;8.00;99.90;;;;;;4971318;28;20251;-71
2023/04/25 03:11:30;;;;;;;4.70;3.00;;;7.90;99.90;;;;;;4983397;28;20831;-71
2023/04/25 03:13:56;;;;;;;3.40;3.10;;;7.90;99.90;;;;;;4960829;28;20631;-70
2023/04/25 03:16:22;;;;;;;3.30;3.00;;;7.90;99.90;;;;;;4967922;28;20188;-71
2023/04/25 03:18:49;;;;;;;4.50;2.57;;;7.90;99.90;;;;;;4964368;28;20235;-70
2023/04/25 03:21:14;;;;;;;5.03;2.77;;;7.90;99.90;;;;;;4970221;28;20435;-72
2023/04/25 03:23:40;;;;;;;4.27;3.10;;;7.90;99.90;;;;;;4964742;28;20453;-73
2023/04/25 03:26:05;;;;;;;3.20;2.83;;;7.90;99.90;;;;;;4969303;28;20755;-71
2023/04/25 03:28:31;;;;;;;4.20;3.80;;;8.00;99.90;;;;;;4974915;28;20180;-70
2023/04/25 03:30:56;;;;;;;6.53;3.10;;;8.00;99.90;;;;;;4969945;28;20709;-71
2023/04/25 03:33:22;;;;;;;3.37;3.07;;;8.00;99.90;;;;;;4967450;28;20191;-72
2023/04/25 03:35:47;;;;;;;3.40;3.03;;;7.90;99.90;;;;;;4972463;28;20192;-71
2023/04/25 03:38:13;;;;;;;3.10;2.90;;;7.90;99.90;;;;;;4972069;28;20597;-70
2023/04/25 03:40:38;;;;;;;3.03;2.73;;;7.90;99.90;;;;;;4971900;28;20292;-71
2023/04/25 03:43:04;;;;;;;3.77;3.47;;;7.90;99.90;;;;;;4973067;28;20274;-71
2023/04/25 03:45:30;;;;;;;3.40;3.07;;;7.90;99.90;;;;;;4973927;28;20179;-71
2023/04/25 03:47:55;;;;;;;3.40;2.80;;;7.90;99.90;;;;;;4971181;28;20185;-71
2023/04/25 03:50:21;;;;;;;3.80;3.30;;;7.90;99.90;;;;;;4975022;28;20192;-71
2023/04/25 03:52:46;;;;;;;3.17;2.77;;;7.90;99.90;;;;;;4974540;28;20181;-71
2023/04/25 03:55:12;;;;;;;3.67;3.27;;;7.90;99.90;;;;;;4976047;28;20173;-70
2023/04/25 03:57:37;;;;;;;3.40;3.10;;;7.90;99.90;;;;;;4971892;28;20271;-71
2023/04/25 04:00:04;;;;;;;4.00;3.60;;;7.90;99.90;;;;;;4960749;28;20282;-70
2023/04/25 04:02:29;;;;;;;3.70;3.30;;;7.90;99.90;;;;;;4965389;28;20256;-71
2023/04/25 04:04:56;;;;;;;3.83;3.53;;;7.90;99.90;;;;;;4975732;28;20899;-70
2023/04/25 04:07:22;;;;;;;3.40;3.10;;;7.80;99.90;;;;;;4963433;28;20180;-72
2023/04/25 04:09:47;;;;;;;9.67;3.63;;;7.80;99.90;;;;;;4960530;28;20475;-71
2023/04/25 04:12:13;;;;;;;5.40;3.40;;;7.80;99.90;;;;;;4973359;28;20263;-70
2023/04/25 04:14:38;;;;;;;7.20;4.10;;;7.80;99.90;;;;;;4975706;28;20615;-70
2023/04/25 04:17:04;;;;;;;7.00;4.13;;;7.70;99.90;;;;;;4968973;28;20197;-71
2023/04/25 04:19:29;;;;;;;4.10;3.80;;;7.70;99.90;;;;;;4970126;28;20542;-71
2023/04/25 04:21:55;;;;;;;3.40;3.10;;;7.70;99.90;;;;;;4972958;28;20677;-70
2023/04/25 04:24:20;;;;;;;3.80;3.33;;;7.70;99.90;;;;;;4974519;28;20203;-70
2023/04/25 04:26:46;;;;;;;4.67;3.93;;;7.60;99.90;;;;;;4974768;28;20231;-71
2023/04/25 04:29:11;;;;;;;6.00;4.23;;;7.70;99.90;;;;;;4967773;28;20208;-70
2023/04/25 04:31:37;;;;;;;3.80;3.50;;;7.70;99.90;;;;;;4969456;28;20274;-70
2023/04/25 04:34:03;;;;;;;4.13;3.73;;;7.70;99.90;;;;;;4973865;28;20197;-71
2023/04/25 04:36:29;;;;;;;4.70;3.77;;;7.80;99.90;;;;;;4970224;28;20271;-71
2023/04/25 04:38:56;;;;;;;4.50;3.87;;;7.80;99.90;;;;;;4969529;28;21190;-70
2023/04/25 04:41:21;;;;;;;4.27;3.73;;;7.70;99.90;;;;;;4966629;28;20431;-71
2023/04/25 04:43:47;;;;;;;4.80;4.40;;;7.70;99.90;;;;;;4974038;28;20455;-72
2023/04/25 04:46:13;;;;;;;4.93;3.60;;;7.60;99.90;;;;;;4970808;28;20179;-70
2023/04/25 04:48:39;;;;;;;4.83;4.13;;;7.70;99.90;;;;;;4968164;28;20183;-70
2023/04/25 04:51:06;;;;;;;4.07;3.70;;;7.70;99.90;;;;;;4972306;28;20680;-70
2023/04/25 04:53:32;;;;;;;4.57;4.17;;;7.80;99.90;;;;;;4973253;28;20849;-70
2023/04/25 04:55:57;;;;;;;7.17;4.07;;;7.90;99.90;;;;;;4974318;28;20797;-70
2023/04/25 04:58:23;;;;;;;6.73;3.63;;;8.00;99.90;;;;;;4969633;28;20455;-71
2023/04/25 05:00:49;;;;;;;4.20;3.90;;;8.10;99.90;;;;;;4967894;28;20246;-72
2023/04/25 05:03:14;;;;;;;5.23;3.80;;;8.10;99.90;;;;;;4973012;28;20176;-70
2023/04/25 05:05:40;;;;;;;5.00;3.80;;;8.20;99.90;;;;;;4967782;28;20946;-70
2023/04/25 05:08:06;;;;;;;4.93;4.17;;;8.20;99.90;;;;;;4972652;28;20177;-70
2023/04/25 05:10:32;;;;;;;4.77;4.37;;;8.30;99.90;;;;;;4988638;23;20833;-68
2023/04/25 05:12:57;;;;;;;4.27;3.97;;;8.40;99.90;;;;;;4973859;28;20219;-68
2023/04/25 05:15:23;;;;;;;3.90;3.40;;;8.50;99.90;;;;;;4968767;28;20812;-67
2023/04/25 05:17:48;;;;;;;6.03;5.43;;;8.60;99.90;;;;;;4969655;28;20200;-67
2023/04/25 05:20:15;;;;;;;5.00;4.60;;;8.60;99.90;;;;;;4964245;28;20206;-67
2023/04/25 05:22:41;;;;;;;5.33;4.77;;;8.60;99.90;;;;;;4972686;28;20263;-68
2023/04/25 05:25:08;;;;;;;5.60;5.00;;;8.60;99.90;;;;;;4964386;28;20546;-67
2023/04/25 05:27:34;;;;;;;7.10;5.60;;;8.70;99.90;;;;;;4966114;28;20891;-68
2023/04/25 05:29:59;;;;;;;7.07;4.93;;;8.70;99.90;;;;;;4963121;28;20559;-67
2023/04/25 05:32:25;;;;;;;6.20;5.63;;;8.60;99.90;;;;;;4963900;28;20700;-67
2023/04/25 05:34:51;;;;;;;4.73;4.33;;;8.60;99.90;;;;;;4967373;28;20601;-68
2023/04/25 05:37:17;;;;;;;6.47;5.00;;;8.60;99.90;;;;;;4963501;28;20256;-68
2023/04/25 05:39:42;;;;;;;5.87;5.37;;;8.60;99.90;;;;;;4967635;28;20195;-68
2023/04/25 05:42:08;;;;;;;6.77;5.43;;;8.60;99.90;;;;;;4971695;28;20195;-68
2023/04/25 05:44:33;;;;;;;8.27;4.93;;;8.70;99.90;;;;;;4970577;28;20794;-68
2023/04/25 05:46:59;;;;;;;5.53;5.03;;;8.80;99.90;;;;;;4965254;28;20199;-68
2023/04/25 05:49:24;;;;;;;5.30;4.80;;;8.90;99.90;;;;;;4970157;28;20886;-68
2023/04/25 05:51:50;;;;;;;6.37;4.80;;;9.10;99.90;;;;;;4974292;28;20187;-68
2023/04/25 05:54:15;;;;;;;5.13;4.60;;;9.20;99.90;;;;;;4983593;28;20307;-67
2023/04/25 05:56:41;;;;;;;8.13;4.43;;;9.20;99.90;;;;;;4977518;28;20231;-68
2023/04/25 05:59:06;;;;;;;4.60;4.20;;;9.20;99.90;;;;;;4982322;28;20212;-68
2023/04/25 06:01:32;;;;;;;6.50;4.60;;;9.10;99.90;;;;;;4981331;28;20550;-68
2023/04/25 06:03:58;;;;;;;4.70;4.30;;;9.00;99.90;;;;;;4974579;28;20191;-67
2023/04/25 06:06:23;;;;;;;6.43;4.30;;;8.90;99.90;;;;;;4981058;28;20191;-67
2023/04/25 06:08:49;;;;;;;4.87;4.47;;;8.90;99.90;;;;;;4972825;28;20176;-68
2023/04/25 06:11:14;;;;;;;5.50;4.43;;;8.90;99.90;;;;;;4979364;28;20711;-68
2023/04/25 06:13:40;;;;;;;4.73;4.13;;;8.90;99.90;;;;;;4985467;28;20203;-68
2023/04/25 06:16:06;;;;;;;5.00;4.50;;;8.90;99.90;;;;;;4983190;28;20184;-67
2023/04/25 06:18:31;;;;;;;5.90;5.30;;;8.80;99.90;;;;;;4981269;28;20215;-68
2023/04/25 06:20:57;;;;;;;5.40;5.00;;;8.80;99.90;;;;;;4974394;28;20247;-67
2023/04/25 06:23:22;;;;;;;4.37;3.97;;;8.90;99.90;;;;;;4980290;28;20188;-67
2023/04/25 06:25:48;;;;;;;4.87;4.30;;;8.90;99.90;;;;;;4973682;28;20228;-67
2023/04/25 06:28:13;;;;;;;7.30;4.80;;;8.80;99.90;;;;;;4972009;28;20766;-67
2023/04/25 06:30:39;;;;;;;11.17;10.00;;;8.70;99.90;;;;;;4969075;28;20208;-67
2023/04/25 06:33:04;;;;;;;7.17;5.90;;;8.70;99.90;;;;;;4967323;28;20543;-68
2023/04/25 06:35:30;;;;;;;9.93;7.10;;;8.60;99.90;;;;;;4967366;28;20818;-68
2023/04/25 06:37:55;;;;;;;7.70;5.67;;;8.50;99.90;;;;;;4968414;28;20208;-67
2023/04/25 06:40:21;;;;;;;6.60;5.63;;;8.50;99.90;;;;;;4963538;28;20350;-68
2023/04/25 06:42:46;;;;;;;6.70;6.03;;;8.50;99.90;;;;;;4967382;28;20187;-68
2023/04/25 06:45:12;;;;;;;5.47;5.00;;;8.50;99.90;;;;;;4963402;28;20181;-67
2023/04/25 06:47:37;;;;;;;5.67;5.27;;;8.50;99.90;;;;;;4964207;28;20180;-68
2023/04/25 06:50:04;;;;;;;6.20;4.97;;;8.40;99.90;;;;;;4964724;28;20698;-67
2023/04/25 06:52:29;;;;;;;5.67;5.13;;;8.50;99.90;;;;;;4963310;28;20184;-67
2023/04/25 06:54:55;;;;;;;6.83;5.97;;;8.40;99.90;;;;;;4965458;28;20444;-67
2023/04/25 06:57:20;;;;;;;6.40;5.80;;;8.40;99.90;;;;;;4964790;28;20219;-67
2023/04/25 06:59:46;;;;;;;6.40;4.83;;;8.40;99.90;;;;;;4964372;28;20192;-67
2023/04/25 07:02:11;;;;;;;6.03;5.47;;;8.40;99.90;;;;;;4962335;28;20179;-67
2023/04/25 07:04:37;;;;;;;5.30;4.80;;;8.50;99.90;;;;;;4963448;28;20204;-67
2023/04/25 07:07:03;;;;;;;5.67;4.80;;;8.50;99.90;;;;;;4965000;28;20649;-67
2023/04/25 07:09:29;;;;;;;5.60;5.10;;;8.50;99.90;;;;;;4963188;28;20719;-67
2023/04/25 07:11:54;;;;;;;8.43;7.60;;;8.60;99.90;;;;;;4963864;28;20515;-67
2023/04/25 07:14:20;;;;;;;6.87;5.97;;;8.50;99.90;;;;;;4964542;28;20559;-67
2023/04/25 07:16:46;;;;;;;6.70;5.50;;;8.60;99.90;;;;;;4966510;28;20184;-67
2023/04/25 07:19:11;;;;;;;6.50;5.70;;;8.50;99.90;;;;;;4963572;28;20208;-67
2023/04/25 07:21:37;;;;;;;5.50;5.00;;;8.50;99.90;;;;;;4961275;28;20176;-67
2023/04/25 07:24:02;;;;;;;5.67;5.17;;;8.50;99.90;;;;;;4963221;28;20271;-67
2023/04/25 07:26:28;;;;;;;6.77;6.20;;;8.40;99.90;;;;;;4964617;28;20173;-67
2023/04/25 07:28:54;;;;;;;6.67;5.97;;;8.40;99.90;;;;;;4963358;28;20565;-67
2023/04/25 07:31:20;;;;;;;9.07;7.00;;;8.40;99.90;;;;;;4963124;28;20172;-67
2023/04/25 07:33:46;;;;;;;9.57;6.80;;;8.40;99.90;;;;;;4964013;28;20452;-67
2023/04/25 07:36:12;;;;;;;6.90;6.20;;;8.40;99.90;;;;;;4962684;28;22999;-67
2023/04/25 07:38:38;;;;;;;8.10;7.30;;;8.40;99.90;;;;;;4962609;28;20218;-68
2023/04/25 07:41:04;;;;;;;8.17;6.30;;;8.40;99.90;;;;;;4964951;28;20468;-67
2023/04/25 07:43:29;;;;;;;5.87;5.33;;;8.40;99.90;;;;;;4963338;28;20438;-67
2023/04/25 07:45:56;;;;;;;7.80;6.40;;;8.40;99.90;;;;;;4963287;28;20193;-67
2023/04/25 07:48:22;;;;;;;5.70;5.20;;;8.40;99.90;;;;;;4963655;28;20188;-67
2023/04/25 07:50:48;;;;;;;11.00;8.70;;;8.30;99.90;;;;;;4971020;28;20455;-67
2023/04/25 07:53:13;;;;;;;7.77;6.50;;;8.30;99.90;;;;;;4970485;28;20188;-67
2023/04/25 07:55:40;;;;;;;7.50;6.80;;;8.30;99.90;;;;;;4971584;28;20264;-67
2023/04/25 07:58:09;;;;;;;7.30;6.60;;;8.30;99.90;;;;;;4979667;28;20672;-67
2023/04/25 08:00:35;;;;;;;6.93;6.23;;;8.40;99.90;;;;;;4977647;28;20904;-67
2023/04/25 08:03:00;;;;;;;6.50;5.90;;;8.30;99.90;;;;;;4972866;28;20788;-67
2023/04/25 08:05:26;;;;;;;7.77;6.90;;;8.30;99.90;;;;;;4981139;28;20445;-67
2023/04/25 08:07:52;;;;;;;11.10;9.70;;;8.40;99.90;;;;;;4977267;28;20186;-67
2023/04/25 08:10:17;;;;;;;8.87;8.03;;;8.50;99.90;;;;;;4970570;28;20692;-67
2023/04/25 08:12:43;;;;;;;10.03;8.40;;;8.50;99.90;;;;;;4972916;28;20296;-67
2023/04/25 08:15:09;;;;;;;7.10;5.90;;;8.50;99.90;;;;;;4972407;28;20196;-67
2023/04/25 08:17:34;;;;;;;6.80;6.10;;;8.60;99.90;;;;;;4971074;28;20208;-67
2023/04/25 08:20:00;;;;;;;6.80;6.20;;;8.50;99.90;;;;;;4973632;28;20455;-67
2023/04/25 08:22:25;;;;;;;7.13;6.43;;;8.60;99.90;;;;;;4984280;28;20176;-67
2023/04/25 08:24:51;;;;;;;6.73;6.03;;;8.60;99.90;;;;;;4975016;28;20191;-67
2023/04/25 08:27:18;;;;;;;6.43;5.83;;;8.60;99.90;;;;;;4971701;28;20544;-67
2023/04/25 08:29:43;;;;;;;7.20;6.53;;;8.80;99.90;;;;;;4978601;28;20196;-67
2023/04/25 08:32:09;;;;;;;6.50;6.00;;;8.80;99.90;;;;;;4975749;28;20442;-67
2023/04/25 08:34:34;;;;;;;10.10;8.57;;;8.70;99.90;;;;;;4967013;28;20688;-67
2023/04/25 08:37:00;;;;;;;7.90;7.10;;;8.70;99.90;;;;;;4966303;28;20200;-67
2023/04/25 08:39:26;;;;;;;9.17;8.17;;;8.70;99.90;;;;;;4961382;28;20212;-67
2023/04/25 08:41:52;;;;;;;8.77;6.73;;;8.60;99.90;;;;;;4972304;28;20255;-67
2023/04/25 08:44:20;;;;;;;9.27;8.33;;;8.60;99.90;;;;;;4972993;28;20187;-67
2023/04/25 08:46:49;;;;;;;9.73;8.77;;;8.60;99.90;;;;;;4973009;28;20936;-67
2023/04/25 08:49:17;;;;;;;10.83;9.73;;;8.60;99.90;;;;;;4972797;28;20486;-67
2023/04/25 08:51:47;;;;;;;11.37;10.37;;;8.60;99.90;;;;;;4970673;28;20834;-68
2023/04/25 08:54:14;;;;;;;9.10;8.30;;;8.50;99.90;;;;;;4980733;28;20455;-69
2023/04/25 08:56:43;;;;;;;9.50;8.33;;;8.50;99.90;;;;;;4975784;28;20509;-68
2023/04/25 08:59:09;;;;;;;12.40;9.20;;;8.50;99.90;;;;;;4972113;28;21950;-69
2023/04/25 09:01:38;;;;;;;7.80;6.47;;;8.50;99.90;;;;;;4967745;28;20573;-70
2023/04/25 09:04:03;;;;;;;12.40;7.57;;;8.50;99.90;;;;;;4971439;28;20442;-67
2023/04/25 09:06:30;;;;;;;8.77;7.27;;;8.60;99.90;;;;;;4968685;28;20439;-68
2023/04/25 09:09:05;;;;;;;9.30;7.40;;;8.60;99.90;;;;;;4969464;28;20209;-67
2023/04/25 09:11:31;;;;;;;7.83;6.83;;;8.50;99.90;;;;;;4968471;28;20851;-67
2023/04/25 09:14:12;;;;;;;10.80;7.20;;;8.50;99.90;;;;;;4972800;28;20470;-68
2023/04/25 09:16:56;;;;;;;9.57;8.57;;;8.40;99.90;;;;;;4969466;28;20463;-69
2023/04/25 09:19:35;;;;;;;8.43;7.63;;;8.40;99.90;;;;;;4967915;28;20475;-68
2023/04/25 09:22:02;;;;;;;8.03;7.20;;;8.30;99.90;;;;;;4971810;28;20442;-69
2023/04/25 09:24:38;;;;;;;8.67;7.73;;;8.20;99.90;;;;;;4969739;28;20447;-68
2023/04/25 09:27:09;;;;;;;9.00;8.13;;;8.20;99.90;;;;;;4970791;28;20435;-68
2023/04/25 09:29:37;;;;;;;9.23;8.17;;;8.20;99.90;;;;;;4968986;28;20601;-69
2023/04/25 09:32:19;;;;;;;8.40;7.67;;;8.30;99.90;;;;;;4972182;28;20440;-67
2023/04/25 09:34:51;;;;;;;8.33;7.43;;;8.20;99.90;;;;;;4966789;28;20493;-68
2023/04/25 09:37:28;;;;;;;7.67;6.87;;;8.20;99.90;;;;;;4973351;28;20449;-68
2023/04/25 09:39:59;;;;;;;7.77;7.03;;;8.30;99.90;;;;;;4967542;28;20485;-68
2023/04/25 09:42:27;;;;;;;9.20;6.90;;;8.30;99.90;;;;;;4973402;28;20557;-68
2023/04/25 09:44:54;;;;;;;6.70;6.00;;;8.20;99.90;;;;;;4973818;28;20447;-68
2023/04/25 09:47:22;;;;;;;5.83;5.33;;;8.20;99.90;;;;;;4963186;28;20792;-68
2023/04/25 09:49:48;;;;;;;7.07;6.40;;;8.20;99.90;;;;;;4968838;28;20456;-68
2023/04/25 09:52:16;;;;;;;8.67;7.00;;;8.10;99.90;;;;;;4974268;28;20431;-69
2023/04/25 09:54:42;;;;;;;6.80;6.07;;;8.00;99.90;;;;;;4975336;28;20185;-69
2023/04/25 09:57:13;;;;;;;7.70;5.90;;;8.00;99.90;;;;;;4973601;28;20454;-69
2023/04/25 09:59:42;;;;;;;5.70;5.20;;;7.90;99.90;;;;;;4970006;28;20209;-68
2023/04/25 10:02:09;;;;;;;4.40;4.10;;;7.90;99.90;;;;;;4971660;28;20563;-69
2023/04/25 10:04:35;;;;;;;4.30;4.00;;;7.80;99.90;;;;;;4970929;28;20436;-69
2023/04/25 10:07:04;;;;;;;4.60;2.73;;;7.80;99.90;;;;;;4966529;28;20440;-67
2023/04/25 10:09:33;;;;;;;3.33;3.13;;;7.80;99.90;;;;;;4966819;28;20558;-69
2023/04/25 10:11:59;;;;;;;4.10;3.70;;;7.90;99.90;;;;;;4968367;28;20440;-68
2023/04/25 10:14:26;;;;;;;3.50;3.20;;;8.00;99.90;;;;;;4969206;28;20471;-69
2023/04/25 10:16:56;;;;;;;4.00;2.87;;;8.10;99.90;;;;;;4970670;28;20440;-68
2023/04/25 10:19:22;;;;;;;2.60;2.40;;;8.30;99.90;;;;;;4975999;28;20462;-70
2023/04/25 10:22:04;;;;;;;2.90;2.60;;;8.30;99.90;;;;;;4974803;28;20450;-69
2023/04/25 10:24:30;;;;;;;2.53;2.30;;;8.40;99.90;;;;;;4965683;28;20983;-69
2023/04/25 10:26:57;;;;;;;4.00;2.33;;;8.30;99.90;;;;;;4972320;28;20467;-68
2023/04/25 10:29:26;;;;;;;2.37;2.10;;;8.30;99.90;;;;;;4969153;28;20471;-67
2023/04/25 10:31:52;;;;;;;2.37;2.17;;;8.40;99.90;;;;;;4972872;28;20432;-67
2023/04/25 10:34:18;;;;;;;5.87;2.83;;;8.60;99.90;;;;;;4972856;28;20443;-67
2023/04/25 10:36:53;;;;;;;2.23;2.03;;;8.80;99.90;;;;;;4971854;28;20188;-67
2023/04/25 10:39:24;;;;;;;2.00;1.90;;;9.40;99.90;;;;;;4973766;28;20466;-66
2023/04/25 10:41:57;;;;;;;1.63;1.53;;;9.20;99.90;;;;;;4972720;28;20526;-66
2023/04/25 10:44:26;;;;;;;2.20;2.00;;;8.90;99.90;;;;;;4970412;28;20435;-66
2023/04/25 10:46:52;;;;;;;1.73;1.63;;;8.70;99.90;;;;;;4973638;28;20894;-66
2023/04/25 10:49:36;;;;;;;2.33;2.13;;;8.60;99.90;;;;;;4973146;28;20449;-66
2023/04/25 10:52:12;;;;;;;2.27;2.10;;;8.50;99.90;;;;;;4972456;28;20575;-64
2023/04/25 10:54:48;;;;;;;2.73;2.20;;;8.50;99.90;;;;;;4976690;28;20458;-66
2023/04/25 10:57:29;;;;;;;2.37;2.17;;;8.50;99.90;;;;;;4973674;28;20427;-66
2023/04/25 10:59:59;;;;;;;2.00;1.80;;;8.50;99.90;;;;;;4972901;28;20478;-66
2023/04/25 11:02:28;;;;;;;2.20;1.90;;;8.50;99.90;;;;;;4972413;28;20474;-66
2023/04/25 11:04:54;;;;;;;2.30;2.20;;;8.50;99.90;;;;;;4979933;28;20431;-67
2023/04/25 11:07:33;;;;;;;5.00;2.90;;;8.50;99.90;;;;;;4973018;28;21011;-67
2023/04/25 11:10:01;;;;;;;3.77;3.47;;;8.10;99.90;;;;;;4973116;28;20463;-67
2023/04/25 11:12:27;;;;;;;3.70;2.93;;;7.90;99.90;;;;;;4971169;28;20440;-67
2023/04/25 11:15:03;;;;;;;3.90;3.33;;;8.00;99.90;;;;;;4970587;28;20940;-69
2023/04/25 11:17:29;;;;;;;3.80;3.50;;;8.00;99.90;;;;;;4971049;28;20211;-69
2023/04/25 11:19:56;;;;;;;3.70;3.40;;;8.10;99.90;;;;;;4971942;28;20517;-69
2023/04/25 11:22:22;;;;;;;3.67;3.30;;;8.10;99.90;;;;;;4972550;28;20428;-69
2023/04/25 11:24:47;;;;;;;4.70;3.37;;;8.10;99.90;;;;;;4974221;28;20968;-69
2023/04/25 11:27:13;;;;;;;4.20;3.80;;;8.20;99.90;;;;;;4973263;28;20452;-69
2023/04/25 11:29:39;;;;;;;3.80;3.40;;;8.20;99.90;;;;;;4972791;28;20286;-69
2023/04/25 11:32:04;;;;;;;4.10;3.80;;;8.30;99.90;;;;;;4973907;28;20248;-69
2023/04/25 11:34:32;;;;;;;4.07;3.70;;;8.40;99.90;;;;;;4970842;28;20176;-69
2023/04/25 11:36:59;;;;;;;3.70;3.40;;;8.50;99.90;;;;;;4970753;28;20451;-68
2023/04/25 11:39:26;;;;;;;4.10;3.80;;;8.70;99.90;;;;;;4976176;28;20561;-69
2023/04/25 11:41:52;;;;;;;3.73;3.43;;;8.90;99.90;;;;;;4984357;28;20443;-69
2023/04/25 11:44:18;;;;;;;3.20;3.00;;;9.10;99.90;;;;;;4975797;28;20439;-68
2023/04/25 11:46:44;;;;;;;2.60;2.40;;;9.20;99.90;;;;;;4973940;28;20458;-69
2023/04/25 11:49:09;;;;;;;4.07;3.67;;;9.30;99.90;;;;;;4974939;28;20491;-69
2023/04/25 11:51:46;;;;;;;3.20;3.00;;;9.50;99.90;;;;;;4983047;28;20971;-68
2023/04/25 11:54:12;;;;;;;3.30;3.10;;;9.80;99.90;;;;;;4975770;28;20607;-68
2023/04/25 11:56:41;;;;;;;4.17;3.87;;;9.80;99.90;;;;;;4981898;28;20434;-68
2023/04/25 11:59:06;;;;;;;3.70;3.40;;;9.90;99.90;;;;;;4985122;28;20669;-68
2023/04/25 12:01:37;;;;;;;5.47;4.60;;;9.90;99.90;;;;;;4980742;28;20534;-68
2023/04/25 12:04:14;;;;;;;4.00;3.70;;;9.80;99.90;;;;;;4977801;28;20192;-68
2023/04/25 12:06:41;;;;;;;4.60;4.20;;;9.90;99.90;;;;;;4980510;28;20509;-69
2023/04/25 12:09:10;;;;;;;4.30;4.00;;;10.00;99.90;;;;;;4982096;28;20470;-68
2023/04/25 12:11:46;;;;;;;3.97;3.67;;;9.70;99.90;;;;;;4979458;28;20455;-68
2023/04/25 12:14:21;;;;;;;4.73;4.30;;;9.60;99.90;;;;;;4974946;28;20944;-69
2023/04/25 12:16:49;;;;;;;5.10;4.70;;;9.70;99.90;;;;;;4983523;28;20443;-68
2023/04/25 12:19:16;;;;;;;5.60;4.20;;;9.80;99.90;;;;;;4983628;28;20528;-69
2023/04/25 12:21:42;;;;;;;5.67;5.17;;;9.50;99.90;;;;;;4986848;28;20821;-69
2023/04/25 12:24:12;;;;;;;5.57;5.07;;;9.50;99.90;;;;;;4983785;28;20442;-69
2023/04/25 12:26:47;;;;;;;6.43;5.83;;;9.50;99.90;;;;;;4981083;28;20438;-68
2023/04/25 12:29:21;;;;;;;8.67;5.57;;;9.50;99.90;;;;;;4982559;28;20545;-69
2023/04/25 12:31:46;;;;;;;6.87;5.90;;;9.60;99.90;;;;;;4983113;28;20480;-68
2023/04/25 12:34:12;;;;;;;5.97;5.47;;;9.80;99.90;;;;;;4976453;28;20526;-67
2023/04/25 12:36:38;;;;;;;6.37;5.77;;;9.90;99.90;;;;;;4974157;28;20187;-72
2023/04/25 12:39:04;;;;;;;8.70;5.63;;;10.00;99.90;;;;;;4981459;28;20658;-68
2023/04/25 12:41:30;;;;;;;6.97;6.33;;;10.10;99.90;;;;;;4992236;28;20545;-72
2023/04/25 12:43:55;;;;;;;6.40;5.80;;;10.20;99.90;;;;;;4975388;28;20180;-71
2023/04/25 12:46:22;;;;;;;7.10;6.20;;;10.30;99.90;;;;;;4976470;28;20443;-68
2023/04/25 12:48:48;;;;;;;7.30;6.70;;;10.30;99.90;;;;;;4969413;28;20220;-67
2023/04/25 12:51:13;;;;;;;6.70;5.67;;;10.20;99.90;;;;;;4975765;28;22124;-68
2023/04/25 12:53:40;;;;;;;7.30;6.60;;;10.20;99.90;;;;;;4972528;28;20263;-68